Accueil
METAR-TAF:

METAR-TAF

Aéroports :

Base aérienne de Beauvechain

Beauvechain, Belgique

latitude: 50-45N, longitude: 004-46E, altitude: 105 m

Observation

Le bulletin a été fait il y a 1 heure et 37 minutes, à 11:55 UTC
Vent 8 kt de ouest
Température 23°C
Humidité 41%
Pression 1026 hPa
Visibilité 10 km ou plus
Quelques nuages à une hauteur de 4000 ft

METAR: EBBE 221155Z 26008KT 9999 FEW040 23/09 Q1026 BLU BLU

Heure: 15:32 (13:32 UTC)

Prévision

Le bulletin a été fait il y a 1 heure et 51 minutes, à 11:41 UTC
Prévision valable du 22 à 13 UTC au 22 à 22 UTC
Vent 5 kt de ouest
Visibilité 10 km ou plus
Quelques nuages à une hauteur de 4500 ft

TAF: EBBE 221141Z 2213/2222 26005KT 9999 FEW045

Observations et prévisions météorologiques de plus de 4000 aéroports (messages METAR et TAF).

Les stations disponibles sont représentées par des disques jaunes et rouges sur la carte.

Passer la souris dessus pour voir le nom de la station.

Cliquer dessus pour voir les observations et prévisions météorologiques.

Pour changer de carte: cliquez sur les boutons verts avec une croix noire pour zoomer, sur le bouton vert avec un tiret pour effectuer un zoom arrière, ou sur les flèches vertes pour les cartes adjacentes.


METAR-TAF: